Songa Challenge — V7CZ8 — position and weather

sailwx.info

Track history (hours):
 
Tides and Currents Weather Stations Pressure Air Temp Water Temp Dewpoint Dewpoint Depression Visibility Wind Speed Wind Dir Waves Ship Positions

Songa Challenge

Last reported at 2018-May-30 15:31 UTC. Time now 2018-Jun-25 05:56 UTC.
Position N 01°26' E 103°12'.
Warning: this ship's position is 25 days out of date.

Length 146 m; draft 8 m.

Type: Ship (hazmat cat B). MMSI: 538005355.

Date/timePositionNaut miles runAvg speedWind from/ knotsBaromVisibWave heightAir tempDewpointWater temp
2018-May-30 15:31N 01°26' E 103°12'311.3
2018-May-30 15:16N 01°24' E 103°14'611.1
2018-May-30 14:46N 01°20' E 103°18'311.3
2018-May-30 14:30N 01°18' E 103°21'611.9
2018-May-30 14:00N 01°14' E 103°25'611.9
2018-May-30 13:30N 01°13' E 103°31'612.7
2018-May-30 13:00N 01°11' E 103°37'611.9
2018-May-30 12:30N 01°09' E 103°43'612.2
2018-May-30 12:00N 01°11' E 103°48'613.0
2018-May-30 11:30N 01°13' E 103°54'713.2
2018-May-30 11:00N 01°15' E 104°01'712.5
2018-May-30 10:24N 01°16' E 104°08'4 9.8
2018-May-30 09:59N 01°14' E 104°12'511.2
2018-May-30 09:30N 01°09' E 104°12'3 1.5
2018-May-30 07:17N 01°06' E 104°11'0 0.2
2018-May-30 06:56N 01°06' E 104°11'0 0.0
2018-May-30 05:20N 01°06' E 104°11'0 0.1
2018-May-30 04:44N 01°06' E 104°11'0 1.2
2018-May-30 04:27N 01°06' E 104°11'2 4.2
2018-May-30 04:00N 01°05' E 104°09'1 0.1
2018-May-29 20:41N 01°04' E 104°08'0 0.0
2018-May-29 20:26N 01°04' E 104°08'0 0.0
2018-May-29 19:14N 01°04' E 104°08'0 0.0
2018-May-29 18:29N 01°04' E 104°08'0 0.0
2018-May-29 12:35N 01°04' E 104°08'0 0.0
2018-May-28 17:32N 01°04' E 104°08'0 0.0
2018-May-28 17:30N 01°04' E 104°08'0 0.0
2018-May-28 17:00N 01°04' E 104°08'1 2.9
2018-May-28 16:30N 01°05' E 104°09'1 0.3
2018-May-28 13:30N 01°06' E 104°10'0 0.0
2018-May-28 11:27N 01°06' E 104°10'0 0.0
2018-May-28 10:50N 01°06' E 104°10'1 3.1
2018-May-28 10:30N 01°07' E 104°11'4 7.6
2018-May-28 10:00N 01°10' E 104°12'2 3.4
2018-May-28 09:29N 01°12' E 104°13'3 5.4
2018-May-28 09:00N 01°14' E 104°14'510.8
2018-May-28 08:30N 01°18' E 104°18'612.3
2018-May-28 08:00N 01°21' E 104°23'  
2018-May-23 16:07S 06°46' E 112°45'312.2
2018-May-23 15:53S 06°49' E 112°45'410.4
2018-May-23 15:30S 06°53' E 112°44'612.7
2018-May-23 15:00S 06°59' E 112°42'712.9
2018-May-23 14:27S 07°06' E 112°39'3 2.2
2018-May-23 13:00S 07°09' E 112°40'0 0.0
2018-May-23 08:27S 07°09' E 112°40'0 0.0
2018-May-23 03:45S 07°09' E 112°40'0 0.0
2018-May-23 01:03S 07°09' E 112°40'0 0.0
2018-May-23 00:48S 07°09' E 112°40'0 0.0
2018-May-22 22:06S 07°09' E 112°40'0 0.0
2018-May-22 21:45S 07°09' E 112°40'0 0.0
2018-May-22 21:24S 07°09' E 112°40'0 0.0
2018-May-22 20:18S 07°09' E 112°40'0 0.0
2018-May-22 19:09S 07°09' E 112°40'0 0.0
2018-May-22 13:33S 07°09' E 112°40'0 0.0
2018-May-22 13:27S 07°09' E 112°40'0 0.0
2018-May-22 11:54S 07°09' E 112°40'0 0.0
2018-May-22 09:36S 07°09' E 112°40'0 0.0
2018-May-22 09:15S 07°09' E 112°40'0 0.0
2018-May-21 23:36S 07°09' E 112°40'0 0.0
2018-May-21 23:30S 07°09' E 112°40'0 0.0
2018-May-21 03:48S 07°09' E 112°40'0 0.5
2018-May-21 03:30S 07°09' E 112°40'2 3.8
2018-May-21 03:00S 07°07' E 112°39'4 8.4
2018-May-21 02:31S 07°03' E 112°40'810.7
2018-May-21 01:48S 06°56' E 112°43'310.5
2018-May-21 01:30S 06°53' E 112°44'4 7.6
2018-May-21 00:59S 06°50' E 112°46'1 0.2
2018-May-20 21:32S 06°50' E 112°47'0 0.0
2018-May-20 21:11S 06°50' E 112°47'0 0.1
2018-May-20 20:44S 06°50' E 112°47'0 0.0
2018-May-20 19:53S 06°50' E 112°47'0 0.0
2018-May-20 19:05S 06°50' E 112°47'0 0.0
2018-May-20 18:41S 06°50' E 112°47'0 0.0
2018-May-20 16:38S 06°50' E 112°47'  
Track history (hours):
 
Tides and Currents Weather Stations Pressure Air Temp Water Temp Dewpoint Dewpoint Depression Visibility Wind Speed Wind Dir Waves Ship Positions

Songa Challenge

Last reported at 2018-May-30 15:31 UTC. Time now 2018-Jun-25 05:56 UTC.
Position N 01°26' E 103°12'.
Warning: this ship's position is 25 days out of date.

Length 146 m; draft 8 m.

Type: Ship (hazmat cat B). MMSI: 538005355.

Date/timePositionNaut miles runAvg speedWind from/ knotsBaromVisibWave heightAir tempDewpointWater temp
2018-May-30 15:31N 01°26' E 103°12'311.3
2018-May-30 15:16N 01°24' E 103°14'611.1
2018-May-30 14:46N 01°20' E 103°18'311.3
2018-May-30 14:30N 01°18' E 103°21'611.9
2018-May-30 14:00N 01°14' E 103°25'611.9
2018-May-30 13:30N 01°13' E 103°31'612.7
2018-May-30 13:00N 01°11' E 103°37'611.9
2018-May-30 12:30N 01°09' E 103°43'612.2
2018-May-30 12:00N 01°11' E 103°48'613.0
2018-May-30 11:30N 01°13' E 103°54'713.2
2018-May-30 11:00N 01°15' E 104°01'712.5
2018-May-30 10:24N 01°16' E 104°08'4 9.8
2018-May-30 09:59N 01°14' E 104°12'511.2
2018-May-30 09:30N 01°09' E 104°12'3 1.5
2018-May-30 07:17N 01°06' E 104°11'0 0.2
2018-May-30 06:56N 01°06' E 104°11'0 0.0
2018-May-30 05:20N 01°06' E 104°11'0 0.1
2018-May-30 04:44N 01°06' E 104°11'0 1.2
2018-May-30 04:27N 01°06' E 104°11'2 4.2
2018-May-30 04:00N 01°05' E 104°09'1 0.1
2018-May-29 20:41N 01°04' E 104°08'0 0.0
2018-May-29 20:26N 01°04' E 104°08'0 0.0
2018-May-29 19:14N 01°04' E 104°08'0 0.0
2018-May-29 18:29N 01°04' E 104°08'0 0.0
2018-May-29 12:35N 01°04' E 104°08'0 0.0
2018-May-28 17:32N 01°04' E 104°08'0 0.0
2018-May-28 17:30N 01°04' E 104°08'0 0.0
2018-May-28 17:00N 01°04' E 104°08'1 2.9
2018-May-28 16:30N 01°05' E 104°09'1 0.3
2018-May-28 13:30N 01°06' E 104°10'0 0.0
2018-May-28 11:27N 01°06' E 104°10'0 0.0
2018-May-28 10:50N 01°06' E 104°10'1 3.1
2018-May-28 10:30N 01°07' E 104°11'4 7.6
2018-May-28 10:00N 01°10' E 104°12'2 3.4
2018-May-28 09:29N 01°12' E 104°13'3 5.4
2018-May-28 09:00N 01°14' E 104°14'510.8
2018-May-28 08:30N 01°18' E 104°18'612.3
2018-May-28 08:00N 01°21' E 104°23'  
2018-May-23 16:07S 06°46' E 112°45'312.2
2018-May-23 15:53S 06°49' E 112°45'410.4
2018-May-23 15:30S 06°53' E 112°44'612.7
2018-May-23 15:00S 06°59' E 112°42'712.9
2018-May-23 14:27S 07°06' E 112°39'3 2.2
2018-May-23 13:00S 07°09' E 112°40'0 0.0
2018-May-23 08:27S 07°09' E 112°40'0 0.0
2018-May-23 03:45S 07°09' E 112°40'0 0.0
2018-May-23 01:03S 07°09' E 112°40'0 0.0
2018-May-23 00:48S 07°09' E 112°40'0 0.0
2018-May-22 22:06S 07°09' E 112°40'0 0.0
2018-May-22 21:45S 07°09' E 112°40'0 0.0
2018-May-22 21:24S 07°09' E 112°40'0 0.0
2018-May-22 20:18S 07°09' E 112°40'0 0.0
2018-May-22 19:09S 07°09' E 112°40'0 0.0
2018-May-22 13:33S 07°09' E 112°40'0 0.0
2018-May-22 13:27S 07°09' E 112°40'0 0.0
2018-May-22 11:54S 07°09' E 112°40'0 0.0
2018-May-22 09:36S 07°09' E 112°40'0 0.0
2018-May-22 09:15S 07°09' E 112°40'0 0.0
2018-May-21 23:36S 07°09' E 112°40'0 0.0
2018-May-21 23:30S 07°09' E 112°40'0 0.0
2018-May-21 03:48S 07°09' E 112°40'0 0.5
2018-May-21 03:30S 07°09' E 112°40'2 3.8
2018-May-21 03:00S 07°07' E 112°39'4 8.4
2018-May-21 02:31S 07°03' E 112°40'810.7
2018-May-21 01:48S 06°56' E 112°43'310.5
2018-May-21 01:30S 06°53' E 112°44'4 7.6
2018-May-21 00:59S 06°50' E 112°46'1 0.2
2018-May-20 21:32S 06°50' E 112°47'0 0.0
2018-May-20 21:11S 06°50' E 112°47'0 0.1
2018-May-20 20:44S 06°50' E 112°47'0 0.0
2018-May-20 19:53S 06°50' E 112°47'0 0.0
2018-May-20 19:05S 06°50' E 112°47'0 0.0
2018-May-20 18:41S 06°50' E 112°47'0 0.0
2018-May-20 16:38S 06°50' E 112°47'  

Dump ship's entire track history